Date,TemperatureHighF,TemperatureAvgF,TemperatureLowF,DewpointHighF,DewpointAvgF,DewpointLowF,HumidityHigh,HumidityAvg,HumidityLow,PressureMaxIn,PressureMinIn,WindSpeedMaxMPH,WindSpeedAvgMPH,GustSpeedMaxMPH,PrecipitationSumIn
2013-6-1,80.2,61.4,39.2,46.5,40.3,30.6,74,49,28,30.20,30.00,12,1,12,0.00
2013-6-2,77.5,59.8,40.6,46.8,39.8,32.5,79,51,29,30.03,29.94,11,1,11,0.00
2013-6-3,80.4,60.2,35.8,45.0,37.3,27.5,76,46,26,30.05,29.97,10,1,10,0.00
2013-6-4,81.3,63.7,39.4,46.2,38.1,27.3,64,41,26,30.09,30.02,10,2,14,0.00
2013-6-5,90.7,70.7,45.0,51.8,44.3,33.0,66,41,24,30.07,29.98,10,1,12,0.00
2013-6-6,90.7,71.1,48.7,55.1,48.2,38.4,71,47,27,30.04,29.95,15,1,15,0.00
2013-6-7,88.2,69.7,48.0,55.8,47.7,37.9,70,48,32,30.09,30.01,13,2,13,0.00
2013-6-8,91.2,67.5,42.1,50.1,41.5,28.2,63,42,19,30.10,30.01,12,2,16,0.00
2013-6-9,88.5,67.5,47.1,51.5,41.8,33.3,69,42,22,30.04,29.89,14,2,98,0.00
2013-6-10,81.3,60.8,34.3,43.2,35.6,22.3,63,42,24,29.95,29.79,19,2,20,0.00
2013-6-11,67.8,53.2,37.2,42.9,34.1,26.3,70,50,35,30.06,29.88,13,2,15,0.00
2013-6-12,67.8,50.7,31.3,41.1,32.8,22.8,75,52,35,30.09,30.04,14,2,17,0.00
2013-6-13,63.1,49.0,32.4,39.3,33.4,23.6,74,56,40,30.20,30.08,12,2,18,0.00
2013-6-14,75.0,56.0,31.3,42.6,33.8,24.4,78,47,28,30.21,29.99,11,1,11,0.00
2013-6-15,84.4,64.4,40.6,49.5,40.2,27.1,64,44,25,30.01,29.88,14,1,14,0.00
2013-6-16,85.3,65.0,44.6,52.8,44.7,33.3,68,49,31,30.08,29.98,17,1,17,0.00
2013-6-17,81.1,62.5,41.4,51.2,43.7,33.5,80,53,35,30.09,29.90,12,1,12,0.00
2013-6-18,63.9,54.3,47.1,45.0,40.0,34.4,74,59,43,29.97,29.87,10,1,19,0.00
2013-6-19,67.6,53.3,41.2,42.0,36.6,31.4,72,54,37,30.04,29.88,13,2,20,0.00
2013-6-20,67.8,52.0,33.1,41.7,35.3,25.5,78,55,35,30.08,29.99,13,2,17,0.00
2013-6-21,68.4,53.0,40.5,44.7,38.1,30.5,77,58,42,30.11,30.07,8,1,12,0.00
2013-6-22,78.6,61.2,35.4,48.3,41.3,27.9,79,51,32,30.10,29.90,10,1,13,0.00
2013-6-23,64.2,58.6,54.1,53.8,48.6,40.8,84,70,51,29.92,29.72,6,0,7,0.00
2013-6-24,62.2,55.2,49.3,50.0,47.5,44.0,86,76,59,29.76,29.68,4,0,8,0.00
2013-6-25,69.1,58.1,50.7,51.6,46.7,43.9,86,68,46,29.91,29.73,9,1,10,0.02
2013-6-26,68.9,59.6,51.1,54.0,49.3,44.5,81,70,55,30.08,29.90,7,0,7,0.00
2013-6-27,84.4,67.9,46.9,59.0,52.6,42.0,87,61,40,30.20,30.07,7,1,9,0.00
2013-6-28,94.3,75.3,53.4,62.7,56.2,46.8,81,55,32,30.21,30.06,11,1,11,0.00
2013-6-29,93.0,75.8,60.4,63.4,56.3,50.2,73,53,36,30.12,30.03,8,1,9,0.00
2013-6-30,96.4,78.6,55.2,62.2,55.8,47.0,76,49,31,30.08,29.93,10,2,14,0.00